createdAt,value
2018-10-16T00:01:45.022Z,16.62
2018-10-16T00:04:14.247Z,17.60
2018-10-16T00:06:43.461Z,16.93
2018-10-16T00:09:12.704Z,18.65
2018-10-16T00:12:07.026Z,20.57
2018-10-16T00:14:36.258Z,16.55
2018-10-16T00:17:05.944Z,18.77
2018-10-16T00:19:35.228Z,17.37
2018-10-16T00:27:02.570Z,19.80
2018-10-16T00:29:31.794Z,18.63
2018-10-16T00:32:01.098Z,15.40
2018-10-16T00:34:30.307Z,17.17
2018-10-16T00:36:59.540Z,16.70
2018-10-16T00:39:28.772Z,19.43
2018-10-16T00:41:58.480Z,19.07
2018-10-16T00:44:27.700Z,17.30
2018-10-16T00:46:56.911Z,16.00
2018-10-16T00:49:26.199Z,17.23
2018-10-16T00:51:55.413Z,16.15
2018-10-16T00:54:24.634Z,16.03
2018-10-16T00:56:53.873Z,15.13
2018-10-16T00:59:23.074Z,15.03
2018-10-16T01:01:52.346Z,15.67
2018-10-16T01:04:21.556Z,14.80
2018-10-16T01:06:50.794Z,21.70
2018-10-16T01:09:20.012Z,17.07
2018-10-16T01:11:49.283Z,19.73
2018-10-16T01:14:18.486Z,18.40
2018-10-16T01:16:47.731Z,15.70
2018-10-16T01:19:17.053Z,20.43
2018-10-16T01:21:46.292Z,16.63
2018-10-16T01:24:15.615Z,15.83
2018-10-16T01:26:44.823Z,16.20
2018-10-16T01:29:14.047Z,16.47
2018-10-16T01:31:43.307Z,18.30
2018-10-16T01:34:12.543Z,14.33
2018-10-16T01:36:41.785Z,15.37
2018-10-16T01:39:11.051Z,14.73
2018-10-16T01:41:40.305Z,19.17
2018-10-16T01:44:09.521Z,16.80
2018-10-16T01:46:38.703Z,16.27
2018-10-16T01:49:07.946Z,18.27
2018-10-16T01:51:37.146Z,16.47
2018-10-16T01:54:06.426Z,18.07
2018-10-16T01:56:35.692Z,16.80
2018-10-16T01:59:04.962Z,14.93
2018-10-16T02:01:34.218Z,17.07
2018-10-16T02:04:03.423Z,15.63
2018-10-16T02:06:32.663Z,14.90
2018-10-16T02:09:02.164Z,16.90
2018-10-16T02:11:31.387Z,20.30
2018-10-16T02:14:00.591Z,16.03
2018-10-16T02:16:29.827Z,16.57
2018-10-16T02:23:56.466Z,16.93
2018-10-16T02:26:25.683Z,16.47
2018-10-16T02:28:56.122Z,16.97
2018-10-16T02:31:25.384Z,18.47
2018-10-16T02:33:54.593Z,14.73
2018-10-16T02:36:23.803Z,17.48
2018-10-16T02:38:53.011Z,19.00
2018-10-16T02:41:22.246Z,16.53
2018-10-16T02:43:51.473Z,17.80
2018-10-16T02:46:20.695Z,16.43
2018-10-16T02:48:49.935Z,18.90
2018-10-16T02:51:19.149Z,19.27
2018-10-16T02:53:48.375Z,16.25
2018-10-16T02:56:17.611Z,16.30
2018-10-16T02:58:46.839Z,16.57
2018-10-16T03:01:16.117Z,17.60
2018-10-16T03:03:45.341Z,15.30
2018-10-16T03:06:14.549Z,17.67
2018-10-16T03:08:43.773Z,16.77
2018-10-16T03:11:13.000Z,15.13
2018-10-16T03:13:42.243Z,18.87
2018-10-16T03:16:11.495Z,15.27
2018-10-16T03:18:40.703Z,16.10
2018-10-16T03:21:09.926Z,16.30
2018-10-16T03:23:39.126Z,15.87
2018-10-16T03:26:08.354Z,17.27
2018-10-16T03:28:37.573Z,17.23
2018-10-16T03:31:06.822Z,19.87
2018-10-16T03:33:36.039Z,16.33
2018-10-16T03:36:05.795Z,19.07
2018-10-16T03:38:35.055Z,17.50
2018-10-16T03:41:04.282Z,14.83
2018-10-16T03:43:35.414Z,15.97
2018-10-16T03:46:04.718Z,20.37
2018-10-16T03:48:33.927Z,16.80
2018-10-16T03:51:03.167Z,15.83
2018-10-16T03:53:32.388Z,19.97
2018-10-16T03:56:01.608Z,18.47
2018-10-16T03:58:30.870Z,15.70
2018-10-16T04:01:00.079Z,15.77
2018-10-16T04:03:29.304Z,16.60
2018-10-16T04:05:58.518Z,17.57
2018-10-16T04:08:27.730Z,16.70
2018-10-16T04:10:56.990Z,18.20
2018-10-16T04:13:26.514Z,17.37
2018-10-16T04:15:55.715Z,15.97
2018-10-16T04:18:24.927Z,17.00
2018-10-16T04:20:54.172Z,17.53
2018-10-16T04:23:23.415Z,14.43
2018-10-16T04:25:52.666Z,16.73
2018-10-16T04:28:21.878Z,18.37
2018-10-16T04:30:51.106Z,20.20
2018-10-16T04:33:20.571Z,15.70
2018-10-16T04:35:49.847Z,17.90
2018-10-16T04:38:19.071Z,18.60
2018-10-16T04:40:48.307Z,15.47
2018-10-16T04:43:17.516Z,18.07
2018-10-16T04:45:46.754Z,16.73
2018-10-16T04:48:15.971Z,18.17
2018-10-16T04:50:45.197Z,15.80
2018-10-16T04:53:14.399Z,16.50
2018-10-16T04:55:43.661Z,17.50
2018-10-16T04:58:12.859Z,17.40
2018-10-16T05:00:42.087Z,18.17
2018-10-16T05:03:11.303Z,16.50
2018-10-16T05:05:41.764Z,18.90
2018-10-16T05:08:11.008Z,16.90
2018-10-16T05:10:40.218Z,16.33
2018-10-16T05:13:09.476Z,18.45
2018-10-16T05:15:38.650Z,17.73
2018-10-16T05:18:07.886Z,15.17
2018-10-16T05:20:37.101Z,16.97
2018-10-16T05:23:06.356Z,14.30
2018-10-16T05:25:35.595Z,14.17
2018-10-16T05:28:04.954Z,13.13
2018-10-16T05:30:34.148Z,14.30
2018-10-16T05:33:03.383Z,16.80
2018-10-16T05:35:32.619Z,16.53
2018-10-16T05:38:01.824Z,17.00
2018-10-16T05:40:31.038Z,14.63
2018-10-16T05:43:00.267Z,13.63
2018-10-16T05:45:31.799Z,13.03
2018-10-16T05:48:01.018Z,13.23
2018-10-16T05:50:30.254Z,14.13
2018-10-16T05:52:59.474Z,13.43
2018-10-16T05:55:28.706Z,16.37
2018-10-16T05:57:57.974Z,15.77
2018-10-16T06:00:40.404Z,16.57
2018-10-16T06:03:09.863Z,15.10
2018-10-16T06:05:39.228Z,16.03
2018-10-16T06:08:08.678Z,16.55
2018-10-16T06:10:38.223Z,15.07
2018-10-16T06:13:07.482Z,13.37
2018-10-16T06:15:36.702Z,17.27
2018-10-16T06:18:06.154Z,13.13
2018-10-16T06:20:35.481Z,14.55
2018-10-16T06:23:04.732Z,13.23
2018-10-16T06:25:33.935Z,15.20
2018-10-16T06:28:24.508Z,12.17
2018-10-16T06:30:53.725Z,11.90
2018-10-16T06:33:26.170Z,12.43
2018-10-16T06:35:55.316Z,11.67
2018-10-16T06:38:24.530Z,11.27
2018-10-16T06:40:53.963Z,12.63
2018-10-16T06:43:22.983Z,13.73
2018-10-16T06:45:52.194Z,10.93
2018-10-16T06:48:21.705Z,9.53
2018-10-16T06:50:50.683Z,9.47
2018-10-16T06:53:20.009Z,11.35
2018-10-16T06:55:49.195Z,12.27
2018-10-16T06:58:18.486Z,12.30
2018-10-16T07:00:47.722Z,13.90
2018-10-16T07:03:16.939Z,10.40
2018-10-16T07:05:46.430Z,13.80
2018-10-16T07:08:15.651Z,10.57
2018-10-16T07:10:44.917Z,15.93
2018-10-16T07:13:14.140Z,16.70
2018-10-16T07:15:43.396Z,16.23
2018-10-16T07:18:12.630Z,14.13
2018-10-16T07:21:12.283Z,13.27
2018-10-16T07:23:41.466Z,14.97
2018-10-16T07:26:10.677Z,12.20
2018-10-16T07:28:39.888Z,15.30
2018-10-16T07:31:09.122Z,12.23
2018-10-16T07:33:38.347Z,13.63
2018-10-16T07:36:07.617Z,16.47
2018-10-16T07:38:36.861Z,10.70
2018-10-16T07:41:06.058Z,11.03
2018-10-16T07:43:35.308Z,10.30
2018-10-16T07:46:04.642Z,13.07
2018-10-16T07:48:33.934Z,12.90
2018-10-16T07:51:03.094Z,11.37
2018-10-16T07:53:32.306Z,12.67
2018-10-16T07:56:01.562Z,14.70
2018-10-16T07:58:30.770Z,12.13
2018-10-16T08:01:00.007Z,12.23
2018-10-16T08:03:29.230Z,11.10
2018-10-16T08:05:58.474Z,13.70
2018-10-16T08:08:27.710Z,17.87
2018-10-16T08:10:55.985Z,10.70
2018-10-16T08:13:25.235Z,14.28
2018-10-16T08:15:54.458Z,10.20
2018-10-16T08:18:23.678Z,10.77
2018-10-16T08:20:52.893Z,10.65
2018-10-16T08:23:22.126Z,10.50
2018-10-16T08:25:51.343Z,12.80
2018-10-16T08:28:20.627Z,12.80
2018-10-16T08:30:49.848Z,14.40
2018-10-16T08:33:19.089Z,13.30
2018-10-16T08:35:48.367Z,14.43
2018-10-16T08:38:29.406Z,10.77
2018-10-16T08:40:58.887Z,12.63
2018-10-16T08:43:50.098Z,11.40
2018-10-16T08:46:36.167Z,14.03
2018-10-16T08:49:22.338Z,13.50
2018-10-16T08:51:54.925Z,11.28
2018-10-16T08:54:24.163Z,10.28
2018-10-16T08:56:53.410Z,12.17
2018-10-16T08:59:22.638Z,9.37
2018-10-16T09:01:51.879Z,10.13
2018-10-16T09:04:21.106Z,9.98
2018-10-16T09:06:50.390Z,11.08
2018-10-16T09:09:19.703Z,11.37
2018-10-16T09:11:49.390Z,8.27
2018-10-16T09:14:18.811Z,8.33
2018-10-16T09:16:48.028Z,9.65
2018-10-16T09:19:17.246Z,8.43
2018-10-16T09:21:46.464Z,9.30
2018-10-16T09:24:15.674Z,8.03
2018-10-16T09:26:44.906Z,8.90
2018-10-16T09:29:14.123Z,9.75
2018-10-16T09:31:43.390Z,8.30
2018-10-16T09:34:12.591Z,8.77
2018-10-16T09:36:41.836Z,8.97
2018-10-16T09:39:11.679Z,8.33
2018-10-16T09:41:40.917Z,8.63
2018-10-16T09:44:10.167Z,8.75
2018-10-16T09:46:39.602Z,8.47
2018-10-16T09:49:08.845Z,8.37
2018-10-16T09:51:38.687Z,7.64
2018-10-16T09:54:07.888Z,8.63
2018-10-16T09:56:37.204Z,8.40
2018-10-16T09:59:06.414Z,8.20
2018-10-16T10:01:40.842Z,10.50
2018-10-16T10:04:10.063Z,7.60
2018-10-16T10:06:39.313Z,8.48
2018-10-16T10:09:11.755Z,7.92
2018-10-16T10:11:41.166Z,9.18
2018-10-16T10:14:10.379Z,7.73
2018-10-16T10:16:40.079Z,7.93
2018-10-16T10:19:09.667Z,10.44
2018-10-16T10:21:38.909Z,7.83
2018-10-16T10:24:08.106Z,9.00
2018-10-16T10:26:37.411Z,7.90
2018-10-16T10:29:06.641Z,9.20
2018-10-16T10:31:35.902Z,7.80
2018-10-16T10:34:05.219Z,8.35
2018-10-16T10:36:34.448Z,8.30
2018-10-16T10:39:04.997Z,8.23
2018-10-16T10:41:34.217Z,7.70
2018-10-16T10:44:05.011Z,7.97
2018-10-16T10:46:34.234Z,7.47
2018-10-16T10:49:03.462Z,7.87
2018-10-16T10:51:32.990Z,8.93
2018-10-16T10:54:01.890Z,7.65
2018-10-16T10:56:31.189Z,7.83
2018-10-16T10:59:00.352Z,8.13
2018-10-16T11:01:29.606Z,7.67
2018-10-16T11:03:58.866Z,7.80
2018-10-16T11:06:28.078Z,8.78
2018-10-16T11:08:57.409Z,7.57
2018-10-16T11:11:26.631Z,7.50
2018-10-16T11:13:55.868Z,8.57
2018-10-16T11:16:25.097Z,9.13
2018-10-16T11:18:54.311Z,8.55
2018-10-16T11:21:23.541Z,11.03
2018-10-16T11:23:52.803Z,7.37
2018-10-16T11:26:22.026Z,7.33
2018-10-16T11:28:51.267Z,7.30
2018-10-16T11:31:20.547Z,6.80
2018-10-16T11:33:49.774Z,6.62
2018-10-16T11:36:18.992Z,6.55
2018-10-16T11:38:48.230Z,7.13
2018-10-16T11:41:17.478Z,6.87
2018-10-16T11:43:47.645Z,6.86
2018-10-16T11:46:16.889Z,7.42
2018-10-16T11:48:46.106Z,6.97
2018-10-16T11:51:15.328Z,6.40
2018-10-16T11:53:44.531Z,6.00
2018-10-16T11:56:13.861Z,6.00
2018-10-16T11:58:42.986Z,6.03
2018-10-16T12:01:12.182Z,7.83
2018-10-16T12:03:41.429Z,5.47
2018-10-16T12:06:10.687Z,8.25
2018-10-16T12:08:39.893Z,6.90
2018-10-16T12:11:09.240Z,6.97
2018-10-16T12:13:38.360Z,7.13
2018-10-16T12:16:07.557Z,6.93
2018-10-16T12:19:10.892Z,7.80
2018-10-16T12:21:40.022Z,7.03
2018-10-16T12:24:09.280Z,9.33
2018-10-16T12:26:38.488Z,10.53
2018-10-16T12:29:07.980Z,6.93
2018-10-16T12:31:37.175Z,8.23
2018-10-16T12:34:08.470Z,8.55
2018-10-16T12:36:37.690Z,7.00
2018-10-16T12:39:09.280Z,7.00
2018-10-16T12:41:38.427Z,7.17
2018-10-16T12:44:07.919Z,7.10
2018-10-16T12:46:37.128Z,6.70
2018-10-16T12:49:06.387Z,7.87
2018-10-16T12:51:35.635Z,7.55
2018-10-16T12:54:05.099Z,9.27
2018-10-16T12:56:34.288Z,6.70
2018-10-16T12:59:04.161Z,7.26
2018-10-16T13:01:33.343Z,7.10
2018-10-16T13:04:02.578Z,7.30
2018-10-16T13:06:31.815Z,7.00
2018-10-16T13:09:01.125Z,6.90
2018-10-16T13:11:30.276Z,6.58
2018-10-16T13:13:59.516Z,6.33
2018-10-16T13:16:28.743Z,6.50
2018-10-16T13:18:57.981Z,6.03
2018-10-16T13:21:27.223Z,7.10
2018-10-16T13:23:56.482Z,6.50
2018-10-16T13:26:25.667Z,6.20
2018-10-16T13:28:54.954Z,6.00
2018-10-16T13:31:24.130Z,5.93
2018-10-16T13:33:53.368Z,6.37
2018-10-16T13:36:22.572Z,8.55
2018-10-16T13:38:51.839Z,7.08
2018-10-16T13:41:21.058Z,6.93
2018-10-16T13:43:50.256Z,7.63
2018-10-16T13:46:19.509Z,6.50
2018-10-16T13:48:48.711Z,7.28
2018-10-16T13:51:17.943Z,6.95
2018-10-16T13:53:47.140Z,6.97
2018-10-16T13:56:16.477Z,6.83
2018-10-16T13:58:45.590Z,6.78
2018-10-16T14:01:14.811Z,9.63
2018-10-16T14:03:44.043Z,7.50
2018-10-16T14:06:13.281Z,6.20
2018-10-16T14:08:42.492Z,6.27
2018-10-16T14:11:11.711Z,8.03
2018-10-16T14:13:40.940Z,7.30
2018-10-16T14:16:10.232Z,5.93
2018-10-16T14:18:39.383Z,5.87
2018-10-16T14:21:10.677Z,5.45
2018-10-16T14:23:40.383Z,7.06
2018-10-16T14:26:09.687Z,5.80
2018-10-16T14:28:38.870Z,7.83
2018-10-16T14:31:08.117Z,7.67
2018-10-16T14:33:37.358Z,8.88
2018-10-16T14:36:06.606Z,6.25
2018-10-16T14:38:35.834Z,6.37
2018-10-16T14:41:05.060Z,8.30
2018-10-16T14:43:34.299Z,8.13
2018-10-16T14:46:03.832Z,8.40
2018-10-16T14:48:33.015Z,7.35
2018-10-16T14:51:02.234Z,8.75
2018-10-16T14:53:31.453Z,7.07
2018-10-16T14:56:00.718Z,6.95
2018-10-16T14:58:29.945Z,6.85
2018-10-16T15:00:59.165Z,7.22
2018-10-16T15:03:28.401Z,7.60
2018-10-16T15:05:57.642Z,9.03
2018-10-16T15:08:26.867Z,5.37
2018-10-16T15:10:56.087Z,7.03
2018-10-16T15:13:25.310Z,5.37
2018-10-16T15:15:54.632Z,8.17
2018-10-16T15:18:23.913Z,8.87
2018-10-16T15:20:53.121Z,8.03
2018-10-16T15:23:22.355Z,10.60
2018-10-16T15:25:51.569Z,12.35
2018-10-16T15:28:20.791Z,6.47
2018-10-16T15:30:50.004Z,6.90
2018-10-16T15:33:19.222Z,8.63
2018-10-16T15:35:48.531Z,9.08
2018-10-16T15:38:17.974Z,11.73
2018-10-16T15:40:47.207Z,9.80
2018-10-16T15:43:16.410Z,5.87
2018-10-16T15:45:45.638Z,9.60
2018-10-16T15:48:14.955Z,7.30
2018-10-16T15:50:44.144Z,11.77
2018-10-16T15:53:13.299Z,6.40
2018-10-16T15:55:42.515Z,10.77
2018-10-16T15:58:11.795Z,6.92
2018-10-16T16:00:41.001Z,6.40
2018-10-16T16:03:10.230Z,8.90
2018-10-16T16:05:39.434Z,7.67
2018-10-16T16:08:08.737Z,6.93
2018-10-16T16:10:37.881Z,7.63
2018-10-16T16:13:08.009Z,7.40
2018-10-16T16:15:37.342Z,8.87
2018-10-16T16:18:06.765Z,7.23
2018-10-16T16:20:35.901Z,7.70
2018-10-16T16:23:05.139Z,7.43
2018-10-16T16:25:34.419Z,8.27
2018-10-16T16:28:03.648Z,8.53
2018-10-16T16:30:32.823Z,9.10
2018-10-16T16:33:02.048Z,7.57
2018-10-16T16:35:31.284Z,11.43
2018-10-16T16:38:00.505Z,10.13
2018-10-16T16:40:29.723Z,12.13
2018-10-16T16:42:59.022Z,13.07
2018-10-16T16:45:28.252Z,11.33
2018-10-16T16:47:57.502Z,9.47
2018-10-16T16:50:26.715Z,11.33
2018-10-16T16:52:55.996Z,9.60
2018-10-16T16:55:25.144Z,10.53
2018-10-16T16:57:54.402Z,16.33
2018-10-16T17:00:23.615Z,9.83
2018-10-16T17:02:52.870Z,15.87
2018-10-16T17:05:22.074Z,10.20
2018-10-16T17:07:51.359Z,11.73
2018-10-16T17:10:21.318Z,11.50
2018-10-16T17:12:50.585Z,13.83
2018-10-16T17:15:19.801Z,12.50
2018-10-16T17:17:49.079Z,11.03
2018-10-16T17:20:18.271Z,12.40
2018-10-16T17:22:47.558Z,11.57
2018-10-16T17:25:16.929Z,12.47
2018-10-16T17:27:46.088Z,14.87
2018-10-16T17:30:16.910Z,13.97
2018-10-16T17:32:46.542Z,13.43
2018-10-16T17:35:16.462Z,13.05
2018-10-16T17:37:45.720Z,14.27
2018-10-16T17:40:16.341Z,11.93
2018-10-16T17:42:45.798Z,12.47
2018-10-16T17:45:16.243Z,13.57
2018-10-16T17:47:45.672Z,13.67
2018-10-16T17:50:17.623Z,13.33
2018-10-16T17:52:46.944Z,12.10
2018-10-16T17:55:16.651Z,13.10
2018-10-16T17:57:45.921Z,12.10
2018-10-16T18:00:17.417Z,13.47
2018-10-16T18:02:47.506Z,16.32
2018-10-16T18:05:16.955Z,13.07
2018-10-16T18:07:46.342Z,14.00
2018-10-16T18:10:15.607Z,10.93
2018-10-16T18:12:45.850Z,13.17
2018-10-16T18:15:16.655Z,14.58
2018-10-16T18:17:45.879Z,15.53
2018-10-16T18:20:16.172Z,13.67
2018-10-16T18:22:45.853Z,11.20
2018-10-16T18:25:15.106Z,14.97
2018-10-16T18:27:45.093Z,14.60
2018-10-16T18:30:14.627Z,15.47
2018-10-16T18:32:44.122Z,14.73
2018-10-16T18:35:13.582Z,14.57
2018-10-16T18:37:43.655Z,14.40
2018-10-16T18:40:13.404Z,12.17
2018-10-16T18:42:42.805Z,11.43
2018-10-16T18:45:13.307Z,14.40
2018-10-16T18:47:42.466Z,14.63
2018-10-16T18:50:12.853Z,12.40
2018-10-16T18:52:42.850Z,12.90
2018-10-16T18:55:13.331Z,13.67
2018-10-16T18:57:42.639Z,12.37
2018-10-16T19:00:14.187Z,14.97
2018-10-16T19:02:43.422Z,12.77
2018-10-16T19:05:12.641Z,13.70
2018-10-16T19:07:42.420Z,12.53
2018-10-16T19:10:11.620Z,14.63
2018-10-16T19:12:41.665Z,13.87
2018-10-16T19:15:13.602Z,12.77
2018-10-16T19:17:43.739Z,15.53
2018-10-16T19:20:13.973Z,14.63
2018-10-16T19:22:43.882Z,16.40
2018-10-16T19:25:14.404Z,24.20
2018-10-16T19:27:43.688Z,39.30
2018-10-16T19:30:13.263Z,20.40
2018-10-16T19:32:42.493Z,17.57
2018-10-16T19:35:12.964Z,15.47
2018-10-16T19:37:42.482Z,15.63
2018-10-16T19:40:11.758Z,16.50
2018-10-16T19:42:41.135Z,19.23
2018-10-16T19:45:11.067Z,20.37
2018-10-16T19:47:40.184Z,17.57
2018-10-16T19:50:10.130Z,18.57
2018-10-16T19:52:39.402Z,17.10
2018-10-16T19:55:08.671Z,17.20
2018-10-16T19:57:37.894Z,15.05
2018-10-16T20:00:08.335Z,17.43
2018-10-16T20:02:37.590Z,19.87
2018-10-16T20:05:07.439Z,23.67
2018-10-16T20:07:36.655Z,22.73
2018-10-16T20:10:07.094Z,22.43
2018-10-16T20:12:36.598Z,18.05
2018-10-16T20:15:07.697Z,17.03
2018-10-16T20:17:37.163Z,16.97
2018-10-16T20:20:07.402Z,15.47
2018-10-16T20:22:36.630Z,15.63
2018-10-16T20:25:06.660Z,16.63
2018-10-16T20:27:35.815Z,19.53
2018-10-16T20:30:05.914Z,19.27
2018-10-16T20:32:35.347Z,18.83
2018-10-16T20:35:04.872Z,17.80
2018-10-16T20:37:34.108Z,17.07
2018-10-16T20:40:03.351Z,19.40
2018-10-16T20:42:32.606Z,16.83
2018-10-16T20:45:01.861Z,15.48
2018-10-16T20:47:31.151Z,18.23
2018-10-16T20:50:00.387Z,16.43
2018-10-16T20:52:29.619Z,13.17
2018-10-16T20:54:59.092Z,14.05
2018-10-16T20:57:28.289Z,16.17
2018-10-16T20:59:58.038Z,16.53
2018-10-16T21:02:27.290Z,14.17
2018-10-16T21:04:56.680Z,15.83
2018-10-16T21:07:25.845Z,15.00
2018-10-16T21:09:54.998Z,15.03
2018-10-16T21:12:24.215Z,15.33
2018-10-16T21:19:52.473Z,21.17
2018-10-16T21:22:21.686Z,19.73
2018-10-16T21:24:51.995Z,15.58
2018-10-16T21:27:21.198Z,19.10
2018-10-16T21:29:50.471Z,20.40
2018-10-16T21:32:19.694Z,15.25
2018-10-16T21:34:49.721Z,19.17
2018-10-16T21:37:19.004Z,18.60
2018-10-16T21:39:48.263Z,21.23
2018-10-16T21:42:17.485Z,19.17
2018-10-16T21:44:46.794Z,16.70
2018-10-16T21:47:16.075Z,18.33
2018-10-16T21:49:45.319Z,18.87
2018-10-16T21:52:14.527Z,16.30
2018-10-16T21:54:43.768Z,20.33
2018-10-16T21:57:12.986Z,18.17
2018-10-16T21:59:42.268Z,23.10
2018-10-16T22:02:16.735Z,17.07
2018-10-16T22:04:45.979Z,19.47
2018-10-16T22:07:15.361Z,20.53
2018-10-16T22:09:44.527Z,19.33
2018-10-16T22:12:13.795Z,20.80
2018-10-16T22:14:43.027Z,18.00
2018-10-16T22:17:12.408Z,22.07
2018-10-16T22:19:41.563Z,23.57
2018-10-16T22:22:10.817Z,23.50
2018-10-16T22:24:40.049Z,20.50
2018-10-16T22:27:09.296Z,21.43
2018-10-16T22:29:38.637Z,23.40
2018-10-16T22:32:07.875Z,20.43
2018-10-16T22:34:37.126Z,19.87
2018-10-16T22:37:06.440Z,19.20
2018-10-16T22:39:35.635Z,16.23
2018-10-16T22:42:04.962Z,17.97
2018-10-16T22:44:34.258Z,18.85
2018-10-16T22:47:03.523Z,18.83
2018-10-16T22:49:32.736Z,17.10
2018-10-16T22:52:02.048Z,22.17
2018-10-16T22:54:31.303Z,21.03
2018-10-16T22:57:00.599Z,26.33
2018-10-16T22:59:29.878Z,20.13
2018-10-16T23:01:59.277Z,20.20
2018-10-16T23:04:28.484Z,23.63
2018-10-16T23:06:57.761Z,20.97
2018-10-16T23:09:27.018Z,19.53
2018-10-16T23:11:56.271Z,21.53
2018-10-16T23:14:25.507Z,22.30
2018-10-16T23:16:54.783Z,18.40
2018-10-16T23:19:23.943Z,18.15
2018-10-16T23:21:53.201Z,17.30
2018-10-16T23:24:22.419Z,19.57
2018-10-16T23:26:51.770Z,18.70
2018-10-16T23:29:20.976Z,17.27
2018-10-16T23:31:50.198Z,20.50
2018-10-16T23:34:19.451Z,19.33
2018-10-16T23:36:48.667Z,19.73
2018-10-16T23:39:17.885Z,21.63
2018-10-16T23:41:47.106Z,20.43
2018-10-16T23:44:16.340Z,21.27
2018-10-16T23:46:45.602Z,20.87
2018-10-16T23:49:14.881Z,18.87
2018-10-16T23:51:44.083Z,21.63
2018-10-16T23:54:13.367Z,18.83
2018-10-16T23:56:42.594Z,19.75
2018-10-16T23:59:11.839Z,19.90
